sensor_id;sensor_type;location;lat;lon;timestamp;P1;durP1;ratioP1;P2;durP2;ratioP2
18136;SDS011;9194;42.632;23.298;2022-11-20T00:02:27;1.35;;;1.13;;
18136;SDS011;9194;42.632;23.298;2022-11-20T00:07:29;3.30;;;1.35;;
18136;SDS011;9194;42.632;23.298;2022-11-20T00:12:30;4.18;;;1.52;;
18136;SDS011;9194;42.632;23.298;2022-11-20T00:17:32;3.15;;;1.50;;
18136;SDS011;9194;42.632;23.298;2022-11-20T00:22:33;3.92;;;1.30;;
18136;SDS011;9194;42.632;23.298;2022-11-20T00:27:34;2.92;;;1.48;;
18136;SDS011;9194;42.632;23.298;2022-11-20T00:32:36;3.50;;;1.48;;
18136;SDS011;9194;42.632;23.298;2022-11-20T00:37:37;1.95;;;1.00;;
18136;SDS011;9194;42.632;23.298;2022-11-20T00:42:39;7.88;;;1.55;;
18136;SDS011;9194;42.632;23.298;2022-11-20T00:47:40;2.25;;;1.02;;
18136;SDS011;9194;42.632;23.298;2022-11-20T00:52:41;2.67;;;0.93;;
18136;SDS011;9194;42.632;23.298;2022-11-20T00:57:42;2.03;;;1.30;;
18136;SDS011;9194;42.632;23.298;2022-11-20T01:02:44;2.55;;;1.00;;
18136;SDS011;9194;42.632;23.298;2022-11-20T01:07:45;2.70;;;1.17;;
18136;SDS011;9194;42.632;23.298;2022-11-20T01:12:46;4.38;;;1.13;;
18136;SDS011;9194;42.632;23.298;2022-11-20T01:18:08;9.25;;;1.60;;
18136;SDS011;9194;42.632;23.298;2022-11-20T01:23:09;3.33;;;1.15;;
18136;SDS011;9194;42.632;23.298;2022-11-20T01:28:10;4.47;;;1.25;;
18136;SDS011;9194;42.632;23.298;2022-11-20T01:33:11;2.45;;;1.05;;
18136;SDS011;9194;42.632;23.298;2022-11-20T01:38:13;2.30;;;1.40;;
18136;SDS011;9194;42.632;23.298;2022-11-20T01:43:18;1.92;;;1.55;;
18136;SDS011;9194;42.632;23.298;2022-11-20T01:48:23;2.47;;;1.17;;
18136;SDS011;9194;42.632;23.298;2022-11-20T01:53:29;1.02;;;0.77;;
18136;SDS011;9194;42.632;23.298;2022-11-20T01:58:35;6.60;;;1.23;;
18136;SDS011;9194;42.632;23.298;2022-11-20T02:03:40;5.00;;;1.30;;
18136;SDS011;9194;42.632;23.298;2022-11-20T02:08:42;14.48;;;2.75;;
18136;SDS011;9194;42.632;23.298;2022-11-20T02:13:44;8.27;;;1.40;;
18136;SDS011;9194;42.632;23.298;2022-11-20T02:18:46;1.65;;;0.90;;
18136;SDS011;9194;42.632;23.298;2022-11-20T02:28:58;3.55;;;1.10;;
18136;SDS011;9194;42.632;23.298;2022-11-20T02:34:01;3.10;;;1.13;;
18136;SDS011;9194;42.632;23.298;2022-11-20T02:39:03;6.10;;;1.00;;
18136;SDS011;9194;42.632;23.298;2022-11-20T02:44:05;1.25;;;1.00;;
18136;SDS011;9194;42.632;23.298;2022-11-20T02:49:06;4.50;;;1.10;;
18136;SDS011;9194;42.632;23.298;2022-11-20T02:54:08;2.80;;;1.02;;
18136;SDS011;9194;42.632;23.298;2022-11-20T02:59:09;4.38;;;1.90;;
18136;SDS011;9194;42.632;23.298;2022-11-20T03:04:11;3.00;;;1.65;;
18136;SDS011;9194;42.632;23.298;2022-11-20T03:09:12;5.15;;;1.45;;
18136;SDS011;9194;42.632;23.298;2022-11-20T03:14:13;9.15;;;2.00;;
18136;SDS011;9194;42.632;23.298;2022-11-20T03:19:15;7.50;;;2.10;;
18136;SDS011;9194;42.632;23.298;2022-11-20T03:24:16;2.42;;;1.50;;
18136;SDS011;9194;42.632;23.298;2022-11-20T03:29:17;6.90;;;2.42;;
18136;SDS011;9194;42.632;23.298;2022-11-20T03:34:19;19.83;;;4.63;;
18136;SDS011;9194;42.632;23.298;2022-11-20T03:39:20;5.93;;;2.03;;
18136;SDS011;9194;42.632;23.298;2022-11-20T03:44:21;5.60;;;1.77;;
18136;SDS011;9194;42.632;23.298;2022-11-20T03:49:23;6.80;;;2.88;;
18136;SDS011;9194;42.632;23.298;2022-11-20T03:54:24;9.07;;;2.63;;
18136;SDS011;9194;42.632;23.298;2022-11-20T03:59:25;2.53;;;1.55;;
18136;SDS011;9194;42.632;23.298;2022-11-20T04:04:26;1.40;;;1.30;;
18136;SDS011;9194;42.632;23.298;2022-11-20T04:09:28;5.55;;;1.55;;
18136;SDS011;9194;42.632;23.298;2022-11-20T04:14:29;5.65;;;1.20;;
18136;SDS011;9194;42.632;23.298;2022-11-20T04:19:30;2.08;;;1.35;;
18136;SDS011;9194;42.632;23.298;2022-11-20T04:24:32;4.90;;;1.58;;
18136;SDS011;9194;42.632;23.298;2022-11-20T04:29:33;3.28;;;1.38;;
18136;SDS011;9194;42.632;23.298;2022-11-20T04:34:34;6.60;;;1.67;;
18136;SDS011;9194;42.632;23.298;2022-11-20T04:39:35;2.83;;;1.50;;
18136;SDS011;9194;42.632;23.298;2022-11-20T04:44:37;2.67;;;1.60;;
18136;SDS011;9194;42.632;23.298;2022-11-20T04:49:38;3.05;;;1.52;;
18136;SDS011;9194;42.632;23.298;2022-11-20T04:54:39;3.30;;;1.50;;
18136;SDS011;9194;42.632;23.298;2022-11-20T04:59:40;6.40;;;1.90;;
18136;SDS011;9194;42.632;23.298;2022-11-20T05:04:42;2.60;;;1.35;;
18136;SDS011;9194;42.632;23.298;2022-11-20T05:09:43;2.40;;;1.15;;
18136;SDS011;9194;42.632;23.298;2022-11-20T05:14:45;4.55;;;1.73;;
18136;SDS011;9194;42.632;23.298;2022-11-20T05:19:46;3.13;;;1.15;;
18136;SDS011;9194;42.632;23.298;2022-11-20T05:24:47;3.55;;;1.48;;
18136;SDS011;9194;42.632;23.298;2022-11-20T05:29:49;6.35;;;1.38;;
18136;SDS011;9194;42.632;23.298;2022-11-20T05:34:50;2.97;;;1.60;;
18136;SDS011;9194;42.632;23.298;2022-11-20T05:39:54;2.33;;;0.93;;
18136;SDS011;9194;42.632;23.298;2022-11-20T05:44:56;11.60;;;4.38;;
18136;SDS011;9194;42.632;23.298;2022-11-20T05:50:01;4.30;;;1.17;;
18136;SDS011;9194;42.632;23.298;2022-11-20T05:55:02;4.50;;;1.58;;
18136;SDS011;9194;42.632;23.298;2022-11-20T06:00:04;2.83;;;1.30;;
18136;SDS011;9194;42.632;23.298;2022-11-20T06:05:06;2.40;;;1.92;;
18136;SDS011;9194;42.632;23.298;2022-11-20T06:10:08;4.18;;;1.48;;
18136;SDS011;9194;42.632;23.298;2022-11-20T06:15:09;2.13;;;1.02;;
18136;SDS011;9194;42.632;23.298;2022-11-20T06:20:11;1.40;;;1.30;;
18136;SDS011;9194;42.632;23.298;2022-11-20T06:25:12;3.03;;;1.92;;
18136;SDS011;9194;42.632;23.298;2022-11-20T06:30:14;2.70;;;1.70;;
18136;SDS011;9194;42.632;23.298;2022-11-20T06:35:16;4.07;;;1.60;;
18136;SDS011;9194;42.632;23.298;2022-11-20T06:40:17;1.45;;;1.35;;
18136;SDS011;9194;42.632;23.298;2022-11-20T06:45:18;3.72;;;1.13;;
18136;SDS011;9194;42.632;23.298;2022-11-20T06:50:20;4.10;;;1.35;;
18136;SDS011;9194;42.632;23.298;2022-11-20T06:55:21;2.65;;;1.42;;
18136;SDS011;9194;42.632;23.298;2022-11-20T07:00:22;2.42;;;1.20;;
18136;SDS011;9194;42.632;23.298;2022-11-20T07:05:23;1.25;;;1.05;;
18136;SDS011;9194;42.632;23.298;2022-11-20T07:10:25;2.33;;;1.00;;
18136;SDS011;9194;42.632;23.298;2022-11-20T07:15:27;3.67;;;1.80;;
18136;SDS011;9194;42.632;23.298;2022-11-20T07:20:28;4.82;;;1.65;;
18136;SDS011;9194;42.632;23.298;2022-11-20T07:25:29;1.73;;;1.05;;
18136;SDS011;9194;42.632;23.298;2022-11-20T07:30:31;7.50;;;1.70;;
18136;SDS011;9194;42.632;23.298;2022-11-20T07:35:32;3.28;;;1.05;;
18136;SDS011;9194;42.632;23.298;2022-11-20T07:40:34;3.50;;;1.23;;
18136;SDS011;9194;42.632;23.298;2022-11-20T07:45:35;6.63;;;1.50;;
18136;SDS011;9194;42.632;23.298;2022-11-20T07:50:36;6.43;;;1.38;;
18136;SDS011;9194;42.632;23.298;2022-11-20T07:55:37;1.85;;;1.42;;
18136;SDS011;9194;42.632;23.298;2022-11-20T08:00:39;4.35;;;1.55;;
18136;SDS011;9194;42.632;23.298;2022-11-20T08:05:40;6.20;;;1.65;;
18136;SDS011;9194;42.632;23.298;2022-11-20T08:10:42;6.75;;;1.33;;
18136;SDS011;9194;42.632;23.298;2022-11-20T08:15:47;3.70;;;1.42;;
18136;SDS011;9194;42.632;23.298;2022-11-20T08:20:50;10.95;;;1.35;;
18136;SDS011;9194;42.632;23.298;2022-11-20T08:25:51;6.50;;;1.33;;
18136;SDS011;9194;42.632;23.298;2022-11-20T08:30:57;4.15;;;1.75;;
18136;SDS011;9194;42.632;23.298;2022-11-20T08:36:03;6.43;;;1.55;;
18136;SDS011;9194;42.632;23.298;2022-11-20T08:41:05;6.15;;;1.80;;
18136;SDS011;9194;42.632;23.298;2022-11-20T08:46:33;5.20;;;1.23;;
18136;SDS011;9194;42.632;23.298;2022-11-20T08:51:37;5.15;;;1.38;;
18136;SDS011;9194;42.632;23.298;2022-11-20T08:56:39;3.92;;;2.13;;
18136;SDS011;9194;42.632;23.298;2022-11-20T09:01:40;7.45;;;1.85;;
18136;SDS011;9194;42.632;23.298;2022-11-20T09:06:41;4.60;;;2.20;;
18136;SDS011;9194;42.632;23.298;2022-11-20T09:11:43;4.70;;;2.67;;
18136;SDS011;9194;42.632;23.298;2022-11-20T09:16:44;4.97;;;1.40;;
18136;SDS011;9194;42.632;23.298;2022-11-20T09:21:47;7.78;;;1.17;;
18136;SDS011;9194;42.632;23.298;2022-11-20T09:26:48;8.45;;;1.58;;
18136;SDS011;9194;42.632;23.298;2022-11-20T09:31:49;5.28;;;1.83;;
18136;SDS011;9194;42.632;23.298;2022-11-20T09:36:51;3.65;;;2.15;;
18136;SDS011;9194;42.632;23.298;2022-11-20T09:42:02;2.28;;;1.70;;
18136;SDS011;9194;42.632;23.298;2022-11-20T09:52:32;7.35;;;1.90;;
18136;SDS011;9194;42.632;23.298;2022-11-20T09:57:40;5.63;;;2.40;;
18136;SDS011;9194;42.632;23.298;2022-11-20T10:08:24;4.35;;;2.60;;
18136;SDS011;9194;42.632;23.298;2022-11-20T10:29:36;14.05;;;3.28;;
18136;SDS011;9194;42.632;23.298;2022-11-20T10:34:46;11.75;;;2.45;;
18136;SDS011;9194;42.632;23.298;2022-11-20T10:40:18;7.90;;;2.63;;
18136;SDS011;9194;42.632;23.298;2022-11-20T10:45:38;5.68;;;2.85;;
18136;SDS011;9194;42.632;23.298;2022-11-20T11:01:40;7.97;;;3.22;;
18136;SDS011;9194;42.632;23.298;2022-11-20T11:06:43;10.48;;;3.70;;
18136;SDS011;9194;42.632;23.298;2022-11-20T11:11:49;12.77;;;5.00;;
18136;SDS011;9194;42.632;23.298;2022-11-20T11:16:52;7.70;;;2.38;;
18136;SDS011;9194;42.632;23.298;2022-11-20T11:21:55;2.42;;;1.38;;
18136;SDS011;9194;42.632;23.298;2022-11-20T11:27:01;1.95;;;1.13;;
18136;SDS011;9194;42.632;23.298;2022-11-20T11:32:10;0.60;;;0.60;;
18136;SDS011;9194;42.632;23.298;2022-11-20T11:37:17;2.28;;;0.80;;
18136;SDS011;9194;42.632;23.298;2022-11-20T11:42:20;4.32;;;1.00;;
18136;SDS011;9194;42.632;23.298;2022-11-20T11:47:23;6.13;;;1.00;;
18136;SDS011;9194;42.632;23.298;2022-11-20T11:52:26;9.95;;;2.92;;
18136;SDS011;9194;42.632;23.298;2022-11-20T12:18:34;5.97;;;1.57;;
18136;SDS011;9194;42.632;23.298;2022-11-20T12:29:07;0.80;;;0.80;;
18136;SDS011;9194;42.632;23.298;2022-11-20T12:39:43;3.30;;;1.17;;
18136;SDS011;9194;42.632;23.298;2022-11-20T12:50:18;6.83;;;1.27;;
18136;SDS011;9194;42.632;23.298;2022-11-20T12:55:33;4.28;;;1.02;;
18136;SDS011;9194;42.632;23.298;2022-11-20T13:00:54;7.67;;;1.23;;
18136;SDS011;9194;42.632;23.298;2022-11-20T13:11:20;6.47;;;1.77;;
18136;SDS011;9194;42.632;23.298;2022-11-20T13:22:10;6.03;;;2.67;;
18136;SDS011;9194;42.632;23.298;2022-11-20T13:32:14;10.07;;;2.10;;
18136;SDS011;9194;42.632;23.298;2022-11-20T13:37:24;3.72;;;2.03;;
18136;SDS011;9194;42.632;23.298;2022-11-20T13:42:28;4.67;;;2.90;;
18136;SDS011;9194;42.632;23.298;2022-11-20T13:47:30;10.95;;;4.93;;
18136;SDS011;9194;42.632;23.298;2022-11-20T14:02:40;23.55;;;11.15;;
18136;SDS011;9194;42.632;23.298;2022-11-20T14:07:42;18.00;;;8.85;;
18136;SDS011;9194;42.632;23.298;2022-11-20T14:12:44;14.70;;;7.87;;
18136;SDS011;9194;42.632;23.298;2022-11-20T14:17:45;10.98;;;5.22;;
18136;SDS011;9194;42.632;23.298;2022-11-20T14:22:50;7.73;;;2.37;;
18136;SDS011;9194;42.632;23.298;2022-11-20T14:27:56;12.93;;;3.90;;
18136;SDS011;9194;42.632;23.298;2022-11-20T14:33:03;10.77;;;2.40;;
18136;SDS011;9194;42.632;23.298;2022-11-20T14:38:08;18.80;;;6.53;;
18136;SDS011;9194;42.632;23.298;2022-11-20T14:43:18;8.05;;;3.65;;
18136;SDS011;9194;42.632;23.298;2022-11-20T14:48:28;10.00;;;4.32;;
18136;SDS011;9194;42.632;23.298;2022-11-20T14:53:40;6.33;;;3.10;;
18136;SDS011;9194;42.632;23.298;2022-11-20T14:58:41;2.50;;;2.30;;
18136;SDS011;9194;42.632;23.298;2022-11-20T15:03:43;7.33;;;2.60;;
18136;SDS011;9194;42.632;23.298;2022-11-20T15:08:51;3.90;;;2.17;;
18136;SDS011;9194;42.632;23.298;2022-11-20T15:13:53;3.93;;;2.77;;
18136;SDS011;9194;42.632;23.298;2022-11-20T15:18:54;4.43;;;1.57;;
18136;SDS011;9194;42.632;23.298;2022-11-20T15:23:56;3.90;;;1.80;;
18136;SDS011;9194;42.632;23.298;2022-11-20T15:28:58;1.67;;;1.50;;
18136;SDS011;9194;42.632;23.298;2022-11-20T15:33:59;2.17;;;1.30;;
18136;SDS011;9194;42.632;23.298;2022-11-20T15:39:01;3.27;;;1.53;;
18136;SDS011;9194;42.632;23.298;2022-11-20T15:44:03;3.70;;;1.27;;
18136;SDS011;9194;42.632;23.298;2022-11-20T15:49:05;3.33;;;1.20;;
18136;SDS011;9194;42.632;23.298;2022-11-20T15:54:19;2.07;;;1.60;;
18136;SDS011;9194;42.632;23.298;2022-11-20T15:59:21;5.10;;;1.57;;
18136;SDS011;9194;42.632;23.298;2022-11-20T16:04:23;5.00;;;2.87;;
18136;SDS011;9194;42.632;23.298;2022-11-20T16:09:24;3.70;;;1.87;;
18136;SDS011;9194;42.632;23.298;2022-11-20T16:14:26;1.17;;;1.00;;
18136;SDS011;9194;42.632;23.298;2022-11-20T16:19:46;5.07;;;0.93;;
18136;SDS011;9194;42.632;23.298;2022-11-20T16:24:47;1.33;;;1.23;;
18136;SDS011;9194;42.632;23.298;2022-11-20T16:29:49;0.63;;;0.63;;
18136;SDS011;9194;42.632;23.298;2022-11-20T16:34:50;2.67;;;2.00;;
18136;SDS011;9194;42.632;23.298;2022-11-20T16:39:51;10.27;;;3.83;;
18136;SDS011;9194;42.632;23.298;2022-11-20T16:44:53;5.63;;;3.57;;
18136;SDS011;9194;42.632;23.298;2022-11-20T16:49:54;4.20;;;2.00;;
18136;SDS011;9194;42.632;23.298;2022-11-20T16:54:55;4.03;;;2.17;;
18136;SDS011;9194;42.632;23.298;2022-11-20T16:59:57;6.30;;;2.57;;
18136;SDS011;9194;42.632;23.298;2022-11-20T17:04:59;5.47;;;2.97;;
18136;SDS011;9194;42.632;23.298;2022-11-20T17:10:00;3.20;;;2.53;;
18136;SDS011;9194;42.632;23.298;2022-11-20T17:15:01;4.33;;;3.20;;
18136;SDS011;9194;42.632;23.298;2022-11-20T17:20:03;6.73;;;4.13;;
18136;SDS011;9194;42.632;23.298;2022-11-20T17:25:05;4.63;;;3.90;;
18136;SDS011;9194;42.632;23.298;2022-11-20T17:30:07;14.10;;;8.40;;
18136;SDS011;9194;42.632;23.298;2022-11-20T17:35:08;6.10;;;5.10;;
18136;SDS011;9194;42.632;23.298;2022-11-20T17:40:09;7.67;;;4.60;;
18136;SDS011;9194;42.632;23.298;2022-11-20T17:45:11;5.03;;;3.33;;
18136;SDS011;9194;42.632;23.298;2022-11-20T17:50:12;4.43;;;2.63;;
18136;SDS011;9194;42.632;23.298;2022-11-20T17:55:13;4.17;;;3.23;;
18136;SDS011;9194;42.632;23.298;2022-11-20T18:00:15;3.97;;;3.60;;
18136;SDS011;9194;42.632;23.298;2022-11-20T18:05:17;6.43;;;3.40;;
18136;SDS011;9194;42.632;23.298;2022-11-20T18:10:19;5.83;;;4.63;;
18136;SDS011;9194;42.632;23.298;2022-11-20T18:15:20;8.93;;;5.57;;
18136;SDS011;9194;42.632;23.298;2022-11-20T18:20:21;12.10;;;6.33;;
18136;SDS011;9194;42.632;23.298;2022-11-20T18:25:23;11.00;;;5.80;;
18136;SDS011;9194;42.632;23.298;2022-11-20T18:30:24;7.20;;;4.93;;
18136;SDS011;9194;42.632;23.298;2022-11-20T18:35:25;14.83;;;7.27;;
18136;SDS011;9194;42.632;23.298;2022-11-20T18:40:27;18.00;;;9.87;;
18136;SDS011;9194;42.632;23.298;2022-11-20T18:45:28;37.53;;;15.90;;
18136;SDS011;9194;42.632;23.298;2022-11-20T18:50:30;32.00;;;15.33;;
18136;SDS011;9194;42.632;23.298;2022-11-20T18:55:31;22.83;;;10.43;;
18136;SDS011;9194;42.632;23.298;2022-11-20T19:00:32;12.50;;;7.17;;
18136;SDS011;9194;42.632;23.298;2022-11-20T19:05:34;12.50;;;5.53;;
18136;SDS011;9194;42.632;23.298;2022-11-20T19:10:36;6.53;;;3.70;;
18136;SDS011;9194;42.632;23.298;2022-11-20T19:15:37;4.77;;;2.87;;
18136;SDS011;9194;42.632;23.298;2022-11-20T19:20:39;7.73;;;3.37;;
18136;SDS011;9194;42.632;23.298;2022-11-20T19:25:40;3.57;;;3.03;;
18136;SDS011;9194;42.632;23.298;2022-11-20T19:30:42;9.73;;;3.57;;
18136;SDS011;9194;42.632;23.298;2022-11-20T19:35:43;3.90;;;3.30;;
18136;SDS011;9194;42.632;23.298;2022-11-20T19:40:45;3.63;;;2.87;;
18136;SDS011;9194;42.632;23.298;2022-11-20T19:45:46;6.27;;;3.87;;
18136;SDS011;9194;42.632;23.298;2022-11-20T19:50:47;8.97;;;4.40;;
18136;SDS011;9194;42.632;23.298;2022-11-20T19:55:58;6.43;;;4.00;;
18136;SDS011;9194;42.632;23.298;2022-11-20T20:01:11;7.10;;;4.30;;
18136;SDS011;9194;42.632;23.298;2022-11-20T20:06:18;11.77;;;4.87;;
18136;SDS011;9194;42.632;23.298;2022-11-20T20:11:24;10.40;;;5.07;;
18136;SDS011;9194;42.632;23.298;2022-11-20T20:16:26;10.83;;;6.00;;
18136;SDS011;9194;42.632;23.298;2022-11-20T20:21:28;8.40;;;5.80;;
18136;SDS011;9194;42.632;23.298;2022-11-20T20:26:31;8.93;;;5.60;;
18136;SDS011;9194;42.632;23.298;2022-11-20T20:31:33;10.97;;;5.77;;
18136;SDS011;9194;42.632;23.298;2022-11-20T20:36:35;11.33;;;6.37;;
18136;SDS011;9194;42.632;23.298;2022-11-20T20:41:36;16.13;;;7.87;;
18136;SDS011;9194;42.632;23.298;2022-11-20T20:46:38;11.50;;;7.37;;
18136;SDS011;9194;42.632;23.298;2022-11-20T20:51:40;17.83;;;6.87;;
18136;SDS011;9194;42.632;23.298;2022-11-20T20:56:41;28.17;;;10.27;;
18136;SDS011;9194;42.632;23.298;2022-11-20T21:01:42;12.03;;;6.00;;
18136;SDS011;9194;42.632;23.298;2022-11-20T21:06:44;10.37;;;5.37;;
18136;SDS011;9194;42.632;23.298;2022-11-20T21:11:45;16.37;;;6.10;;
18136;SDS011;9194;42.632;23.298;2022-11-20T21:16:46;11.23;;;6.10;;
18136;SDS011;9194;42.632;23.298;2022-11-20T21:21:48;17.37;;;9.00;;
18136;SDS011;9194;42.632;23.298;2022-11-20T21:27:04;27.43;;;10.73;;
18136;SDS011;9194;42.632;23.298;2022-11-20T21:32:06;19.37;;;10.00;;
18136;SDS011;9194;42.632;23.298;2022-11-20T21:37:07;15.57;;;7.93;;
18136;SDS011;9194;42.632;23.298;2022-11-20T21:42:09;13.87;;;7.80;;
18136;SDS011;9194;42.632;23.298;2022-11-20T21:47:10;13.87;;;7.87;;
18136;SDS011;9194;42.632;23.298;2022-11-20T21:52:12;20.70;;;9.53;;
18136;SDS011;9194;42.632;23.298;2022-11-20T21:57:13;17.90;;;9.07;;
18136;SDS011;9194;42.632;23.298;2022-11-20T22:02:14;16.23;;;9.17;;
18136;SDS011;9194;42.632;23.298;2022-11-20T22:07:16;13.47;;;6.20;;
18136;SDS011;9194;42.632;23.298;2022-11-20T22:12:17;5.97;;;2.80;;
18136;SDS011;9194;42.632;23.298;2022-11-20T22:17:18;12.40;;;5.63;;
18136;SDS011;9194;42.632;23.298;2022-11-20T22:22:39;9.23;;;5.10;;
18136;SDS011;9194;42.632;23.298;2022-11-20T22:27:41;5.60;;;3.90;;
18136;SDS011;9194;42.632;23.298;2022-11-20T22:32:42;4.30;;;3.53;;
18136;SDS011;9194;42.632;23.298;2022-11-20T22:37:43;5.60;;;2.80;;
18136;SDS011;9194;42.632;23.298;2022-11-20T22:42:45;4.87;;;3.23;;
18136;SDS011;9194;42.632;23.298;2022-11-20T22:47:47;16.10;;;4.33;;
18136;SDS011;9194;42.632;23.298;2022-11-20T22:52:48;5.07;;;4.17;;
18136;SDS011;9194;42.632;23.298;2022-11-20T22:57:49;12.10;;;4.73;;
18136;SDS011;9194;42.632;23.298;2022-11-20T23:02:50;9.80;;;5.10;;
18136;SDS011;9194;42.632;23.298;2022-11-20T23:07:52;9.77;;;5.23;;
18136;SDS011;9194;42.632;23.298;2022-11-20T23:12:53;9.03;;;5.03;;
18136;SDS011;9194;42.632;23.298;2022-11-20T23:17:54;93.43;;;10.03;;
18136;SDS011;9194;42.632;23.298;2022-11-20T23:22:55;56.33;;;8.13;;
18136;SDS011;9194;42.632;23.298;2022-11-20T23:27:57;452.33;;;15.60;;
18136;SDS011;9194;42.632;23.298;2022-11-20T23:38:25;9.73;;;5.60;;
18136;SDS011;9194;42.632;23.298;2022-11-20T23:43:26;6.47;;;5.10;;
18136;SDS011;9194;42.632;23.298;2022-11-20T23:48:28;8.10;;;5.17;;
18136;SDS011;9194;42.632;23.298;2022-11-20T23:53:31;6.93;;;5.13;;
18136;SDS011;9194;42.632;23.298;2022-11-20T23:58:37;9.77;;;6.30;;
